sensor_id;sensor_type;location;lat;lon;timestamp;temperature;humidity
37974;DHT22;23796;51.458;7.000;2023-04-15T00:01:39;8.60;71.70
37974;DHT22;23796;51.458;7.000;2023-04-15T00:04:05;8.60;71.80
37974;DHT22;23796;51.458;7.000;2023-04-15T00:06:33;8.60;71.80
37974;DHT22;23796;51.458;7.000;2023-04-15T00:09:01;8.50;72.00
37974;DHT22;23796;51.458;7.000;2023-04-15T00:11:28;8.50;71.90
37974;DHT22;23796;51.458;7.000;2023-04-15T00:13:58;8.50;72.00
37974;DHT22;23796;51.458;7.000;2023-04-15T00:16:23;8.50;72.10
37974;DHT22;23796;51.458;7.000;2023-04-15T00:18:49;8.50;72.10
37974;DHT22;23796;51.458;7.000;2023-04-15T00:21:17;8.50;72.20
37974;DHT22;23796;51.458;7.000;2023-04-15T00:23:43;8.50;72.00
37974;DHT22;23796;51.458;7.000;2023-04-15T00:26:08;8.50;71.70
37974;DHT22;23796;51.458;7.000;2023-04-15T00:28:37;8.50;71.70
37974;DHT22;23796;51.458;7.000;2023-04-15T00:31:05;8.50;71.50
37974;DHT22;23796;51.458;7.000;2023-04-15T00:33:32;8.50;71.50
37974;DHT22;23796;51.458;7.000;2023-04-15T00:35:58;8.50;71.50
37974;DHT22;23796;51.458;7.000;2023-04-15T00:38:27;8.50;71.80
37974;DHT22;23796;51.458;7.000;2023-04-15T00:40:53;8.50;71.70
37974;DHT22;23796;51.458;7.000;2023-04-15T00:43:19;8.50;71.80
37974;DHT22;23796;51.458;7.000;2023-04-15T00:45:45;8.40;71.90
37974;DHT22;23796;51.458;7.000;2023-04-15T00:48:11;8.40;72.00
37974;DHT22;23796;51.458;7.000;2023-04-15T00:50:39;8.40;72.00
37974;DHT22;23796;51.458;7.000;2023-04-15T00:53:05;8.40;72.70
37974;DHT22;23796;51.458;7.000;2023-04-15T00:55:35;8.30;72.90
37974;DHT22;23796;51.458;7.000;2023-04-15T00:58:01;8.30;73.00
37974;DHT22;23796;51.458;7.000;2023-04-15T01:00:27;8.30;73.20
37974;DHT22;23796;51.458;7.000;2023-04-15T01:02:55;8.20;73.50
37974;DHT22;23796;51.458;7.000;2023-04-15T01:05:21;8.20;73.80
37974;DHT22;23796;51.458;7.000;2023-04-15T01:07:47;8.10;73.80
37974;DHT22;23796;51.458;7.000;2023-04-15T01:10:13;8.10;74.00
37974;DHT22;23796;51.458;7.000;2023-04-15T01:12:41;8.10;74.50
37974;DHT22;23796;51.458;7.000;2023-04-15T01:15:12;8.00;74.70
37974;DHT22;23796;51.458;7.000;2023-04-15T01:17:40;8.00;74.70
37974;DHT22;23796;51.458;7.000;2023-04-15T01:20:06;8.00;74.80
37974;DHT22;23796;51.458;7.000;2023-04-15T01:22:34;8.00;74.70
37974;DHT22;23796;51.458;7.000;2023-04-15T01:25:08;8.00;74.80
37974;DHT22;23796;51.458;7.000;2023-04-15T01:27:35;8.00;75.10
37974;DHT22;23796;51.458;7.000;2023-04-15T01:30:02;8.00;75.10
37974;DHT22;23796;51.458;7.000;2023-04-15T01:32:29;7.90;75.20
37974;DHT22;23796;51.458;7.000;2023-04-15T01:34:58;7.90;75.30
37974;DHT22;23796;51.458;7.000;2023-04-15T01:37:23;7.90;75.40
37974;DHT22;23796;51.458;7.000;2023-04-15T01:39:50;7.90;75.60
37974;DHT22;23796;51.458;7.000;2023-04-15T01:42:19;7.90;75.70
37974;DHT22;23796;51.458;7.000;2023-04-15T01:44:45;7.90;75.90
37974;DHT22;23796;51.458;7.000;2023-04-15T01:47:11;7.80;76.10
37974;DHT22;23796;51.458;7.000;2023-04-15T01:49:39;7.80;76.20
37974;DHT22;23796;51.458;7.000;2023-04-15T01:52:09;7.80;76.50
37974;DHT22;23796;51.458;7.000;2023-04-15T01:54:34;7.80;76.60
37974;DHT22;23796;51.458;7.000;2023-04-15T01:57:02;7.80;76.80
37974;DHT22;23796;51.458;7.000;2023-04-15T01:59:29;7.80;77.00
37974;DHT22;23796;51.458;7.000;2023-04-15T02:01:56;7.80;77.20
37974;DHT22;23796;51.458;7.000;2023-04-15T02:04:22;7.70;77.40
37974;DHT22;23796;51.458;7.000;2023-04-15T02:06:52;7.70;77.50
37974;DHT22;23796;51.458;7.000;2023-04-15T02:09:17;7.70;77.50
37974;DHT22;23796;51.458;7.000;2023-04-15T02:11:44;7.70;77.70
37974;DHT22;23796;51.458;7.000;2023-04-15T02:14:13;7.60;77.90
37974;DHT22;23796;51.458;7.000;2023-04-15T02:16:38;7.60;78.00
37974;DHT22;23796;51.458;7.000;2023-04-15T02:19:09;7.60;78.20
37974;DHT22;23796;51.458;7.000;2023-04-15T02:21:35;7.60;78.20
37974;DHT22;23796;51.458;7.000;2023-04-15T02:24:00;7.50;78.20
37974;DHT22;23796;51.458;7.000;2023-04-15T02:26:27;7.50;78.30
37974;DHT22;23796;51.458;7.000;2023-04-15T02:28:53;7.50;78.40
37974;DHT22;23796;51.458;7.000;2023-04-15T02:31:21;7.50;78.40
37974;DHT22;23796;51.458;7.000;2023-04-15T02:33:46;7.50;78.60
37974;DHT22;23796;51.458;7.000;2023-04-15T02:36:14;7.50;78.80
37974;DHT22;23796;51.458;7.000;2023-04-15T02:38:40;7.40;79.10
37974;DHT22;23796;51.458;7.000;2023-04-15T02:41:08;7.40;79.20
37974;DHT22;23796;51.458;7.000;2023-04-15T02:43:34;7.40;79.20
37974;DHT22;23796;51.458;7.000;2023-04-15T02:46:00;7.40;79.10
37974;DHT22;23796;51.458;7.000;2023-04-15T02:48:28;7.40;79.30
37974;DHT22;23796;51.458;7.000;2023-04-15T02:51:09;7.40;79.50
37974;DHT22;23796;51.458;7.000;2023-04-15T02:53:34;7.40;79.70
37974;DHT22;23796;51.458;7.000;2023-04-15T02:56:00;7.30;79.70
37974;DHT22;23796;51.458;7.000;2023-04-15T02:58:26;7.30;79.90
37974;DHT22;23796;51.458;7.000;2023-04-15T03:00:51;7.30;80.00
37974;DHT22;23796;51.458;7.000;2023-04-15T03:03:17;7.30;80.10
37974;DHT22;23796;51.458;7.000;2023-04-15T03:05:43;7.30;80.10
37974;DHT22;23796;51.458;7.000;2023-04-15T03:08:11;7.30;80.30
37974;DHT22;23796;51.458;7.000;2023-04-15T03:10:36;7.20;80.40
37974;DHT22;23796;51.458;7.000;2023-04-15T03:13:05;7.20;80.80
37974;DHT22;23796;51.458;7.000;2023-04-15T03:15:33;7.20;80.90
37974;DHT22;23796;51.458;7.000;2023-04-15T03:17:58;7.20;81.00
37974;DHT22;23796;51.458;7.000;2023-04-15T03:20:26;7.10;81.20
37974;DHT22;23796;51.458;7.000;2023-04-15T03:22:52;7.10;81.30
37974;DHT22;23796;51.458;7.000;2023-04-15T03:25:18;7.10;81.40
37974;DHT22;23796;51.458;7.000;2023-04-15T03:27:43;7.10;81.40
37974;DHT22;23796;51.458;7.000;2023-04-15T03:30:12;7.10;81.60
37974;DHT22;23796;51.458;7.000;2023-04-15T03:32:38;7.10;81.60
37974;DHT22;23796;51.458;7.000;2023-04-15T03:35:06;7.10;81.70
37974;DHT22;23796;51.458;7.000;2023-04-15T03:37:32;7.10;81.80
37974;DHT22;23796;51.458;7.000;2023-04-15T03:39:58;7.00;81.90
37974;DHT22;23796;51.458;7.000;2023-04-15T03:42:23;7.00;82.10
37974;DHT22;23796;51.458;7.000;2023-04-15T03:44:49;7.00;82.30
37974;DHT22;23796;51.458;7.000;2023-04-15T03:47:15;6.90;82.40
37974;DHT22;23796;51.458;7.000;2023-04-15T03:49:40;6.90;82.50
37974;DHT22;23796;51.458;7.000;2023-04-15T03:52:06;6.90;82.60
37974;DHT22;23796;51.458;7.000;2023-04-15T03:54:31;6.90;82.70
37974;DHT22;23796;51.458;7.000;2023-04-15T03:57:02;6.80;82.80
37974;DHT22;23796;51.458;7.000;2023-04-15T03:59:27;6.80;82.90
37974;DHT22;23796;51.458;7.000;2023-04-15T04:01:53;6.80;83.00
37974;DHT22;23796;51.458;7.000;2023-04-15T04:04:18;6.80;83.00
37974;DHT22;23796;51.458;7.000;2023-04-15T04:06:44;6.80;83.10
37974;DHT22;23796;51.458;7.000;2023-04-15T04:09:10;6.80;83.10
37974;DHT22;23796;51.458;7.000;2023-04-15T04:11:35;6.80;83.20
37974;DHT22;23796;51.458;7.000;2023-04-15T04:14:02;6.70;83.20
37974;DHT22;23796;51.458;7.000;2023-04-15T04:16:27;6.70;83.40
37974;DHT22;23796;51.458;7.000;2023-04-15T04:18:53;6.70;83.60
37974;DHT22;23796;51.458;7.000;2023-04-15T04:21:18;6.70;83.60
37974;DHT22;23796;51.458;7.000;2023-04-15T04:23:45;6.60;83.80
37974;DHT22;23796;51.458;7.000;2023-04-15T04:26:13;6.60;83.80
37974;DHT22;23796;51.458;7.000;2023-04-15T04:28:43;6.60;84.00
37974;DHT22;23796;51.458;7.000;2023-04-15T04:31:08;6.60;84.10
37974;DHT22;23796;51.458;7.000;2023-04-15T04:33:34;6.60;84.20
37974;DHT22;23796;51.458;7.000;2023-04-15T04:36:04;6.50;84.40
37974;DHT22;23796;51.458;7.000;2023-04-15T04:38:30;6.50;84.60
37974;DHT22;23796;51.458;7.000;2023-04-15T04:40:56;6.40;84.80
37974;DHT22;23796;51.458;7.000;2023-04-15T04:43:21;6.40;84.90
37974;DHT22;23796;51.458;7.000;2023-04-15T04:45:47;6.40;85.10
37974;DHT22;23796;51.458;7.000;2023-04-15T04:48:13;6.30;85.40
37974;DHT22;23796;51.458;7.000;2023-04-15T04:50:38;6.30;85.40
37974;DHT22;23796;51.458;7.000;2023-04-15T04:53:04;6.30;85.50
37974;DHT22;23796;51.458;7.000;2023-04-15T04:55:32;6.30;85.60
37974;DHT22;23796;51.458;7.000;2023-04-15T04:58:01;6.30;85.70
37974;DHT22;23796;51.458;7.000;2023-04-15T05:00:27;6.20;85.80
37974;DHT22;23796;51.458;7.000;2023-04-15T05:02:56;6.30;85.90
37974;DHT22;23796;51.458;7.000;2023-04-15T05:05:21;6.30;85.80
37974;DHT22;23796;51.458;7.000;2023-04-15T05:07:52;6.30;85.80
37974;DHT22;23796;51.458;7.000;2023-04-15T05:10:18;6.30;85.80
37974;DHT22;23796;51.458;7.000;2023-04-15T05:12:46;6.30;85.80
37974;DHT22;23796;51.458;7.000;2023-04-15T05:15:13;6.30;85.90
37974;DHT22;23796;51.458;7.000;2023-04-15T05:17:39;6.30;85.90
37974;DHT22;23796;51.458;7.000;2023-04-15T05:20:05;6.30;85.90
37974;DHT22;23796;51.458;7.000;2023-04-15T05:22:34;6.30;85.80
37974;DHT22;23796;51.458;7.000;2023-04-15T05:24:59;6.30;85.90
37974;DHT22;23796;51.458;7.000;2023-04-15T05:27:27;6.40;85.90
37974;DHT22;23796;51.458;7.000;2023-04-15T05:29:55;6.40;85.80
37974;DHT22;23796;51.458;7.000;2023-04-15T05:32:21;6.40;85.90
37974;DHT22;23796;51.458;7.000;2023-04-15T05:34:49;6.40;85.90
37974;DHT22;23796;51.458;7.000;2023-04-15T05:37:15;6.40;86.00
37974;DHT22;23796;51.458;7.000;2023-04-15T05:39:40;6.30;86.20
37974;DHT22;23796;51.458;7.000;2023-04-15T05:42:06;6.30;86.30
37974;DHT22;23796;51.458;7.000;2023-04-15T05:44:32;6.40;86.30
37974;DHT22;23796;51.458;7.000;2023-04-15T05:46:58;6.40;86.20
37974;DHT22;23796;51.458;7.000;2023-04-15T05:49:26;6.40;86.20
37974;DHT22;23796;51.458;7.000;2023-04-15T05:51:51;6.50;86.10
37974;DHT22;23796;51.458;7.000;2023-04-15T05:54:21;6.50;86.10
37974;DHT22;23796;51.458;7.000;2023-04-15T05:56:47;6.60;85.80
37974;DHT22;23796;51.458;7.000;2023-04-15T05:59:15;6.60;85.60
37974;DHT22;23796;51.458;7.000;2023-04-15T06:01:43;6.70;85.50
37974;DHT22;23796;51.458;7.000;2023-04-15T06:04:09;6.80;85.40
37974;DHT22;23796;51.458;7.000;2023-04-15T06:06:36;6.80;85.30
37974;DHT22;23796;51.458;7.000;2023-04-15T06:09:07;6.90;85.00
37974;DHT22;23796;51.458;7.000;2023-04-15T06:11:33;7.00;84.70
37974;DHT22;23796;51.458;7.000;2023-04-15T06:13:58;7.20;84.40
37974;DHT22;23796;51.458;7.000;2023-04-15T06:16:26;7.30;83.90
37974;DHT22;23796;51.458;7.000;2023-04-15T06:18:54;7.30;83.80
37974;DHT22;23796;51.458;7.000;2023-04-15T06:21:19;7.30;83.90
37974;DHT22;23796;51.458;7.000;2023-04-15T06:23:45;7.30;84.10
37974;DHT22;23796;51.458;7.000;2023-04-15T06:26:13;7.40;84.10
37974;DHT22;23796;51.458;7.000;2023-04-15T06:28:38;7.60;83.50
37974;DHT22;23796;51.458;7.000;2023-04-15T06:31:04;7.70;83.00
37974;DHT22;23796;51.458;7.000;2023-04-15T06:33:33;7.80;82.70
37974;DHT22;23796;51.458;7.000;2023-04-15T06:35:59;7.90;82.50
37974;DHT22;23796;51.458;7.000;2023-04-15T06:38:25;8.00;82.30
37974;DHT22;23796;51.458;7.000;2023-04-15T06:40:50;8.00;82.20
37974;DHT22;23796;51.458;7.000;2023-04-15T06:43:16;8.10;82.00
37974;DHT22;23796;51.458;7.000;2023-04-15T06:45:42;8.10;81.70
37974;DHT22;23796;51.458;7.000;2023-04-15T06:48:08;8.10;82.10
37974;DHT22;23796;51.458;7.000;2023-04-15T06:50:34;8.20;81.90
37974;DHT22;23796;51.458;7.000;2023-04-15T06:53:00;8.10;82.20
37974;DHT22;23796;51.458;7.000;2023-04-15T06:55:28;8.20;82.20
37974;DHT22;23796;51.458;7.000;2023-04-15T06:57:53;8.40;81.80
37974;DHT22;23796;51.458;7.000;2023-04-15T07:00:21;8.50;81.20
37974;DHT22;23796;51.458;7.000;2023-04-15T07:02:47;8.50;81.00
37974;DHT22;23796;51.458;7.000;2023-04-15T07:05:13;8.60;80.80
37974;DHT22;23796;51.458;7.000;2023-04-15T07:07:38;8.60;80.70
37974;DHT22;23796;51.458;7.000;2023-04-15T07:10:07;8.60;80.80
37974;DHT22;23796;51.458;7.000;2023-04-15T07:12:32;8.60;80.90
37974;DHT22;23796;51.458;7.000;2023-04-15T07:14:59;8.60;81.10
37974;DHT22;23796;51.458;7.000;2023-04-15T07:17:27;8.60;81.10
37974;DHT22;23796;51.458;7.000;2023-04-15T07:19:52;8.60;81.20
37974;DHT22;23796;51.458;7.000;2023-04-15T07:22:18;8.70;81.00
37974;DHT22;23796;51.458;7.000;2023-04-15T07:24:45;8.80;80.90
37974;DHT22;23796;51.458;7.000;2023-04-15T07:27:11;8.80;80.80
37974;DHT22;23796;51.458;7.000;2023-04-15T07:29:36;8.90;80.60
37974;DHT22;23796;51.458;7.000;2023-04-15T07:32:02;9.00;80.40
37974;DHT22;23796;51.458;7.000;2023-04-15T07:34:28;8.80;80.70
37974;DHT22;23796;51.458;7.000;2023-04-15T07:36:53;8.80;81.20
37974;DHT22;23796;51.458;7.000;2023-04-15T07:39:19;9.00;80.90
37974;DHT22;23796;51.458;7.000;2023-04-15T07:41:44;9.10;80.30
37974;DHT22;23796;51.458;7.000;2023-04-15T07:44:10;9.30;79.80
37974;DHT22;23796;51.458;7.000;2023-04-15T07:46:36;9.50;79.20
37974;DHT22;23796;51.458;7.000;2023-04-15T07:49:05;9.70;78.60
37974;DHT22;23796;51.458;7.000;2023-04-15T07:51:31;9.90;78.10
37974;DHT22;23796;51.458;7.000;2023-04-15T07:53:57;9.50;78.10
37974;DHT22;23796;51.458;7.000;2023-04-15T07:56:23;9.30;79.70
37974;DHT22;23796;51.458;7.000;2023-04-15T07:58:49;9.70;79.00
37974;DHT22;23796;51.458;7.000;2023-04-15T08:01:14;10.10;77.40
37974;DHT22;23796;51.458;7.000;2023-04-15T08:03:40;10.30;76.60
37974;DHT22;23796;51.458;7.000;2023-04-15T08:06:07;10.50;75.70
37974;DHT22;23796;51.458;7.000;2023-04-15T08:08:37;10.40;75.00
37974;DHT22;23796;51.458;7.000;2023-04-15T08:11:06;10.30;76.40
37974;DHT22;23796;51.458;7.000;2023-04-15T08:13:31;10.10;75.90
37974;DHT22;23796;51.458;7.000;2023-04-15T08:18:43;10.30;76.20
37974;DHT22;23796;51.458;7.000;2023-04-15T08:21:09;10.70;75.20
37974;DHT22;23796;51.458;7.000;2023-04-15T08:23:34;10.80;72.80
37974;DHT22;23796;51.458;7.000;2023-04-15T08:26:00;10.20;73.80
37974;DHT22;23796;51.458;7.000;2023-04-15T08:28:26;10.50;73.50
37974;DHT22;23796;51.458;7.000;2023-04-15T08:30:54;10.70;72.30
37974;DHT22;23796;51.458;7.000;2023-04-15T08:33:20;11.00;71.10
37974;DHT22;23796;51.458;7.000;2023-04-15T08:35:47;11.10;70.70
37974;DHT22;23796;51.458;7.000;2023-04-15T08:38:15;11.30;70.10
37974;DHT22;23796;51.458;7.000;2023-04-15T08:40:48;11.00;70.90
37974;DHT22;23796;51.458;7.000;2023-04-15T08:43:22;11.30;71.20
37974;DHT22;23796;51.458;7.000;2023-04-15T08:45:55;11.70;69.60
37974;DHT22;23796;51.458;7.000;2023-04-15T08:48:24;11.80;67.80
37974;DHT22;23796;51.458;7.000;2023-04-15T08:50:53;11.30;68.90
37974;DHT22;23796;51.458;7.000;2023-04-15T08:53:18;10.90;70.00
37974;DHT22;23796;51.458;7.000;2023-04-15T08:55:46;10.70;70.90
37974;DHT22;23796;51.458;7.000;2023-04-15T08:58:15;10.60;71.80
37974;DHT22;23796;51.458;7.000;2023-04-15T09:00:41;11.00;70.50
37974;DHT22;23796;51.458;7.000;2023-04-15T09:03:07;11.20;69.80
37974;DHT22;23796;51.458;7.000;2023-04-15T09:05:36;11.40;69.50
37974;DHT22;23796;51.458;7.000;2023-04-15T09:08:02;11.20;69.50
37974;DHT22;23796;51.458;7.000;2023-04-15T09:10:28;10.90;69.80
37974;DHT22;23796;51.458;7.000;2023-04-15T09:12:55;10.90;70.30
37974;DHT22;23796;51.458;7.000;2023-04-15T09:15:26;10.80;70.60
37974;DHT22;23796;51.458;7.000;2023-04-15T09:17:53;10.60;71.40
37974;DHT22;23796;51.458;7.000;2023-04-15T09:20:21;10.80;71.40
37974;DHT22;23796;51.458;7.000;2023-04-15T09:22:48;10.60;71.60
37974;DHT22;23796;51.458;7.000;2023-04-15T09:27:56;10.80;71.60
37974;DHT22;23796;51.458;7.000;2023-04-15T09:30:28;11.10;71.50
37974;DHT22;23796;51.458;7.000;2023-04-15T09:32:59;11.50;70.00
37974;DHT22;23796;51.458;7.000;2023-04-15T09:35:26;11.40;70.70
37974;DHT22;23796;51.458;7.000;2023-04-15T09:38:09;11.50;70.20
37974;DHT22;23796;51.458;7.000;2023-04-15T09:40:37;11.40;70.40
37974;DHT22;23796;51.458;7.000;2023-04-15T09:43:03;11.30;70.70
37974;DHT22;23796;51.458;7.000;2023-04-15T09:45:30;11.40;71.20
37974;DHT22;23796;51.458;7.000;2023-04-15T09:47:57;11.70;70.50
37974;DHT22;23796;51.458;7.000;2023-04-15T09:50:26;11.70;70.10
37974;DHT22;23796;51.458;7.000;2023-04-15T09:52:53;11.80;70.50
37974;DHT22;23796;51.458;7.000;2023-04-15T09:55:18;11.80;70.00
37974;DHT22;23796;51.458;7.000;2023-04-15T09:57:45;11.60;70.70
37974;DHT22;23796;51.458;7.000;2023-04-15T10:00:12;11.70;70.70
37974;DHT22;23796;51.458;7.000;2023-04-15T10:02:41;12.00;70.60
37974;DHT22;23796;51.458;7.000;2023-04-15T10:05:09;12.30;69.30
37974;DHT22;23796;51.458;7.000;2023-04-15T10:07:39;12.60;68.80
37974;DHT22;23796;51.458;7.000;2023-04-15T10:10:08;12.70;68.10
37974;DHT22;23796;51.458;7.000;2023-04-15T10:12:39;12.20;69.50
37974;DHT22;23796;51.458;7.000;2023-04-15T10:15:14;11.80;71.00
37974;DHT22;23796;51.458;7.000;2023-04-15T10:17:43;12.00;71.10
37974;DHT22;23796;51.458;7.000;2023-04-15T10:20:09;12.30;70.00
37974;DHT22;23796;51.458;7.000;2023-04-15T10:22:37;12.80;69.00
37974;DHT22;23796;51.458;7.000;2023-04-15T10:25:05;12.60;68.50
37974;DHT22;23796;51.458;7.000;2023-04-15T10:27:32;11.90;70.30
37974;DHT22;23796;51.458;7.000;2023-04-15T10:30:00;11.50;71.90
37974;DHT22;23796;51.458;7.000;2023-04-15T10:32:28;11.90;71.30
37974;DHT22;23796;51.458;7.000;2023-04-15T10:34:55;12.20;70.00
37974;DHT22;23796;51.458;7.000;2023-04-15T10:37:34;12.50;69.30
37974;DHT22;23796;51.458;7.000;2023-04-15T10:42:49;12.30;70.20
37974;DHT22;23796;51.458;7.000;2023-04-15T10:45:18;12.40;70.40
37974;DHT22;23796;51.458;7.000;2023-04-15T10:47:43;12.00;71.40
37974;DHT22;23796;51.458;7.000;2023-04-15T10:50:09;12.00;71.60
37974;DHT22;23796;51.458;7.000;2023-04-15T10:52:39;11.70;72.60
37974;DHT22;23796;51.458;7.000;2023-04-15T10:55:17;11.60;73.40
37974;DHT22;23796;51.458;7.000;2023-04-15T10:57:43;11.80;72.60
37974;DHT22;23796;51.458;7.000;2023-04-15T11:02:41;12.00;71.80
37974;DHT22;23796;51.458;7.000;2023-04-15T11:05:08;11.70;72.60
37974;DHT22;23796;51.458;7.000;2023-04-15T11:07:46;11.70;72.60
37974;DHT22;23796;51.458;7.000;2023-04-15T11:12:49;11.40;73.70
37974;DHT22;23796;51.458;7.000;2023-04-15T11:17:57;11.60;73.20
37974;DHT22;23796;51.458;7.000;2023-04-15T11:20:24;11.90;72.40
37974;DHT22;23796;51.458;7.000;2023-04-15T11:22:56;12.00;71.80
37974;DHT22;23796;51.458;7.000;2023-04-15T11:25:26;11.80;72.40
37974;DHT22;23796;51.458;7.000;2023-04-15T11:27:52;11.70;73.00
37974;DHT22;23796;51.458;7.000;2023-04-15T11:30:21;11.80;72.40
37974;DHT22;23796;51.458;7.000;2023-04-15T11:32:48;11.70;72.30
37974;DHT22;23796;51.458;7.000;2023-04-15T11:35:15;11.50;73.20
37974;DHT22;23796;51.458;7.000;2023-04-15T11:37:44;11.40;73.50
37974;DHT22;23796;51.458;7.000;2023-04-15T11:40:11;11.20;74.00
37974;DHT22;23796;51.458;7.000;2023-04-15T11:42:37;11.00;74.50
37974;DHT22;23796;51.458;7.000;2023-04-15T11:45:12;10.90;75.10
37974;DHT22;23796;51.458;7.000;2023-04-15T11:47:39;10.90;75.60
37974;DHT22;23796;51.458;7.000;2023-04-15T11:50:19;11.10;75.10
37974;DHT22;23796;51.458;7.000;2023-04-15T11:52:58;11.00;75.00
37974;DHT22;23796;51.458;7.000;2023-04-15T11:55:26;10.90;75.40
37974;DHT22;23796;51.458;7.000;2023-04-15T11:58:09;10.90;75.00
37974;DHT22;23796;51.458;7.000;2023-04-15T12:00:38;10.80;75.80
37974;DHT22;23796;51.458;7.000;2023-04-15T12:03:40;10.80;75.70
37974;DHT22;23796;51.458;7.000;2023-04-15T12:06:20;10.90;75.70
37974;DHT22;23796;51.458;7.000;2023-04-15T12:14:09;10.70;76.30
37974;DHT22;23796;51.458;7.000;2023-04-15T12:16:40;10.50;76.90
37974;DHT22;23796;51.458;7.000;2023-04-15T12:19:10;10.60;77.00
37974;DHT22;23796;51.458;7.000;2023-04-15T12:21:40;10.60;76.50
37974;DHT22;23796;51.458;7.000;2023-04-15T12:24:08;10.60;76.60
37974;DHT22;23796;51.458;7.000;2023-04-15T12:29:07;10.60;76.40
37974;DHT22;23796;51.458;7.000;2023-04-15T12:31:35;10.50;76.50
37974;DHT22;23796;51.458;7.000;2023-04-15T12:34:02;10.50;76.80
37974;DHT22;23796;51.458;7.000;2023-04-15T12:36:29;10.60;76.10
37974;DHT22;23796;51.458;7.000;2023-04-15T12:39:03;10.60;76.20
37974;DHT22;23796;51.458;7.000;2023-04-15T12:41:32;10.60;76.30
37974;DHT22;23796;51.458;7.000;2023-04-15T12:43:58;10.60;76.20
37974;DHT22;23796;51.458;7.000;2023-04-15T12:46:26;10.60;76.20
37974;DHT22;23796;51.458;7.000;2023-04-15T12:48:52;10.70;76.30
37974;DHT22;23796;51.458;7.000;2023-04-15T12:51:18;10.70;76.20
37974;DHT22;23796;51.458;7.000;2023-04-15T12:53:48;10.70;76.20
37974;DHT22;23796;51.458;7.000;2023-04-15T12:56:14;10.60;76.30
37974;DHT22;23796;51.458;7.000;2023-04-15T12:58:41;10.60;76.10
37974;DHT22;23796;51.458;7.000;2023-04-15T13:01:07;10.70;76.20
37974;DHT22;23796;51.458;7.000;2023-04-15T13:03:33;10.70;76.10
37974;DHT22;23796;51.458;7.000;2023-04-15T13:05:58;10.60;76.40
37974;DHT22;23796;51.458;7.000;2023-04-15T13:08:26;10.60;76.80
37974;DHT22;23796;51.458;7.000;2023-04-15T13:10:52;10.60;76.60
37974;DHT22;23796;51.458;7.000;2023-04-15T13:13:20;10.70;76.50
37974;DHT22;23796;51.458;7.000;2023-04-15T13:15:45;10.90;76.00
37974;DHT22;23796;51.458;7.000;2023-04-15T13:18:13;11.00;75.70
37974;DHT22;23796;51.458;7.000;2023-04-15T13:20:41;11.00;75.60
37974;DHT22;23796;51.458;7.000;2023-04-15T13:23:07;10.90;75.60
37974;DHT22;23796;51.458;7.000;2023-04-15T13:25:33;10.90;76.00
37974;DHT22;23796;51.458;7.000;2023-04-15T13:27:58;10.80;76.00
37974;DHT22;23796;51.458;7.000;2023-04-15T13:30:25;10.90;75.70
37974;DHT22;23796;51.458;7.000;2023-04-15T13:32:52;10.70;76.00
37974;DHT22;23796;51.458;7.000;2023-04-15T13:35:18;10.50;77.10
37974;DHT22;23796;51.458;7.000;2023-04-15T13:37:44;10.30;77.50
37974;DHT22;23796;51.458;7.000;2023-04-15T13:40:12;10.40;77.70
37974;DHT22;23796;51.458;7.000;2023-04-15T13:42:38;10.30;77.70
37974;DHT22;23796;51.458;7.000;2023-04-15T13:45:07;10.40;77.60
37974;DHT22;23796;51.458;7.000;2023-04-15T13:47:32;10.40;77.80
37974;DHT22;23796;51.458;7.000;2023-04-15T13:49:58;10.50;77.40
37974;DHT22;23796;51.458;7.000;2023-04-15T13:52:23;10.70;77.00
37974;DHT22;23796;51.458;7.000;2023-04-15T13:54:49;10.50;77.10
37974;DHT22;23796;51.458;7.000;2023-04-15T13:57:15;10.50;78.20
37974;DHT22;23796;51.458;7.000;2023-04-15T13:59:43;10.30;79.50
37974;DHT22;23796;51.458;7.000;2023-04-15T14:02:09;10.20;81.40
37974;DHT22;23796;51.458;7.000;2023-04-15T14:04:34;10.20;81.30
37974;DHT22;23796;51.458;7.000;2023-04-15T14:07:00;10.30;81.30
37974;DHT22;23796;51.458;7.000;2023-04-15T14:09:28;10.40;81.10
37974;DHT22;23796;51.458;7.000;2023-04-15T14:11:54;10.60;80.60
37974;DHT22;23796;51.458;7.000;2023-04-15T14:14:20;10.60;80.80
37974;DHT22;23796;51.458;7.000;2023-04-15T14:16:46;10.70;80.60
37974;DHT22;23796;51.458;7.000;2023-04-15T14:19:13;10.50;81.50
37974;DHT22;23796;51.458;7.000;2023-04-15T14:21:41;10.30;82.60
37974;DHT22;23796;51.458;7.000;2023-04-15T14:24:06;10.30;82.70
37974;DHT22;23796;51.458;7.000;2023-04-15T14:26:32;10.20;82.60
37974;DHT22;23796;51.458;7.000;2023-04-15T14:28:58;10.20;83.70
37974;DHT22;23796;51.458;7.000;2023-04-15T14:31:23;10.30;83.10
37974;DHT22;23796;51.458;7.000;2023-04-15T14:33:51;10.40;83.70
37974;DHT22;23796;51.458;7.000;2023-04-15T14:36:20;10.20;82.60
37974;DHT22;23796;51.458;7.000;2023-04-15T14:38:45;10.10;83.70
37974;DHT22;23796;51.458;7.000;2023-04-15T14:41:11;10.10;85.00
37974;DHT22;23796;51.458;7.000;2023-04-15T14:43:37;10.20;85.10
37974;DHT22;23796;51.458;7.000;2023-04-15T14:46:03;10.10;84.60
37974;DHT22;23796;51.458;7.000;2023-04-15T14:48:30;10.00;85.60
37974;DHT22;23796;51.458;7.000;2023-04-15T14:50:56;9.90;85.40
37974;DHT22;23796;51.458;7.000;2023-04-15T14:53:22;10.00;85.90
37974;DHT22;23796;51.458;7.000;2023-04-15T14:55:52;9.90;85.60
37974;DHT22;23796;51.458;7.000;2023-04-15T14:58:18;9.90;85.90
37974;DHT22;23796;51.458;7.000;2023-04-15T15:00:46;9.80;85.70
37974;DHT22;23796;51.458;7.000;2023-04-15T15:03:14;9.80;86.30
37974;DHT22;23796;51.458;7.000;2023-04-15T15:05:43;9.60;87.00
37974;DHT22;23796;51.458;7.000;2023-04-15T15:08:09;9.50;87.20
37974;DHT22;23796;51.458;7.000;2023-04-15T15:10:36;9.60;87.30
37974;DHT22;23796;51.458;7.000;2023-04-15T15:13:03;9.70;86.90
37974;DHT22;23796;51.458;7.000;2023-04-15T15:15:30;9.70;86.30
37974;DHT22;23796;51.458;7.000;2023-04-15T15:17:55;9.70;86.80
37974;DHT22;23796;51.458;7.000;2023-04-15T15:20:22;9.80;87.20
37974;DHT22;23796;51.458;7.000;2023-04-15T15:22:48;9.80;87.20
37974;DHT22;23796;51.458;7.000;2023-04-15T15:25:13;9.80;87.30
37974;DHT22;23796;51.458;7.000;2023-04-15T15:27:39;9.80;87.70
37974;DHT22;23796;51.458;7.000;2023-04-15T15:30:07;9.70;87.40
37974;DHT22;23796;51.458;7.000;2023-04-15T15:32:33;9.60;88.40
37974;DHT22;23796;51.458;7.000;2023-04-15T15:35:01;9.70;89.30
37974;DHT22;23796;51.458;7.000;2023-04-15T15:37:27;9.70;89.50
37974;DHT22;23796;51.458;7.000;2023-04-15T15:39:56;9.80;88.90
37974;DHT22;23796;51.458;7.000;2023-04-15T15:42:24;9.60;89.20
37974;DHT22;23796;51.458;7.000;2023-04-15T15:44:52;9.50;89.10
37974;DHT22;23796;51.458;7.000;2023-04-15T15:47:18;9.50;88.40
37974;DHT22;23796;51.458;7.000;2023-04-15T15:49:45;9.40;88.60
37974;DHT22;23796;51.458;7.000;2023-04-15T15:52:13;9.50;89.20
37974;DHT22;23796;51.458;7.000;2023-04-15T15:54:40;9.50;88.70
37974;DHT22;23796;51.458;7.000;2023-04-15T15:57:06;9.40;88.70
37974;DHT22;23796;51.458;7.000;2023-04-15T15:59:31;9.50;88.40
37974;DHT22;23796;51.458;7.000;2023-04-15T16:02:00;9.50;88.30
37974;DHT22;23796;51.458;7.000;2023-04-15T16:04:26;9.50;88.00